Accueil
METAR-TAF:

METAR-TAF

Aéroports :

Diepholz, Allemagne

latitude: 52-35N, longitude: 008-21E, altitude: 39 m

Observation

Le bulletin a été fait il y a 15 heures et 16 minutes, à 14:20 UTC
Vent calme
Température 2°C
Humidité 100%
Pression 1018 hPa
Visibilité: 0600 m
Ciel couvert à une hauteur de 100 ft
brouillard

METAR: ETND 201420Z 00000KT 0600 FG OVC001 02/02 Q1018 RED

Heure: 06:36 (05:36 UTC)

Prévision

Le bulletin a été fait il y a 15 heures et 6 minutes, à 14:30 UTC
Prévision valable du 20 à 12 UTC au 20 à 21 UTC
Vent 2 kt de direction variable
Visibilité: 0200 m
à une hauteur de 100 ft
brouillard
Temporairement
du 20 à 12 UTC au 20 à 19 UTC
Vent 3 kt de nord-est
Visibilité: 1430 m
Nuages fragmentés à une hauteur de 300 ft
Nuages fragmentés à une hauteur de 1000 ft
brume

TAF: ETND 201430Z 2012/2021 VRB02KT 0200 FG VV001 TEMPO 2012/2019 05003KT 2000 BR BKN003 BKN010 CANCEL 1430 BY ETGL

Observations et prévisions météorologiques de plus de 4000 aéroports (messages METAR et TAF).

Les stations disponibles sont représentées par des disques jaunes et rouges sur la carte.

Passer la souris dessus pour voir le nom de la station.

Cliquer dessus pour voir les observations et prévisions météorologiques.

Pour changer de carte: cliquez sur les boutons verts avec une croix noire pour zoomer, sur le bouton vert avec un tiret pour effectuer un zoom arrière, ou sur les flèches vertes pour les cartes adjacentes.


METAR-TAF: